Time;durP1;ratioP1;P1;durP2;ratioP2;P2;SDS_P1;SDS_P2;PMS_P1;PMS_P2;Temp;Humidity;BMP_temperature;BMP_pressure;BME280_temperature;BME280_humidity;BME280_pressure;Samples;Min_cycle;Max_cycle;Signal;HPM_P1;HPM_P2
2022/03/11 00:00:20;;;;;;;4.50;3.27;;;8.40;44.20;;;;;;5083445;28;20283;-71
2022/03/11 00:02:48;;;;;;;4.33;3.40;;;8.40;44.20;;;;;;5107949;27;20177;-71
2022/03/11 00:05:13;;;;;;;5.03;3.40;;;8.40;44.20;;;;;;5097457;28;20180;-68
2022/03/11 00:07:39;;;;;;;4.67;3.50;;;8.40;44.40;;;;;;5071669;28;20283;-71
2022/03/11 00:10:05;;;;;;;5.13;3.53;;;8.40;44.30;;;;;;5110671;28;20259;-69
2022/03/11 00:12:33;;;;;;;4.03;3.40;;;8.40;44.30;;;;;;5103122;27;20201;-71
2022/03/11 00:14:58;;;;;;;6.60;3.40;;;8.30;44.40;;;;;;5097659;28;20319;-69
2022/03/11 00:17:26;;;;;;;5.13;3.50;;;8.30;44.40;;;;;;5106407;27;20243;-70
2022/03/11 00:19:52;;;;;;;4.23;3.17;;;8.30;44.40;;;;;;5107074;28;20428;-71
2022/03/11 00:22:25;;;;;;;4.80;3.67;;;8.30;44.40;;;;;;5103799;27;20208;-70
2022/03/11 00:24:53;;;;;;;4.00;3.00;;;8.20;44.40;;;;;;5075357;28;20196;-72
2022/03/11 00:27:18;;;;;;;4.57;3.53;;;8.20;44.30;;;;;;5084207;28;20215;-70
2022/03/11 00:29:46;;;;;;;5.47;3.60;;;8.20;44.70;;;;;;5070616;28;20183;-70
2022/03/11 00:32:14;;;;;;;6.53;3.80;;;8.20;44.40;;;;;;5104534;27;20201;-70
2022/03/11 00:34:42;;;;;;;4.50;3.40;;;8.20;44.60;;;;;;5075791;28;20184;-70
2022/03/11 00:37:10;;;;;;;5.27;3.70;;;8.20;44.60;;;;;;5106298;27;20204;-70
2022/03/11 00:39:36;;;;;;;5.30;3.73;;;8.20;44.90;;;;;;5110419;28;20231;-69
2022/03/11 00:42:02;;;;;;;4.40;3.27;;;8.30;45.20;;;;;;5106747;27;20208;-68
2022/03/11 00:44:30;;;;;;;6.27;4.00;;;8.30;44.90;;;;;;5101597;28;20244;-70
2022/03/11 00:46:58;;;;;;;6.93;5.00;;;8.40;45.60;;;;;;5098009;28;20211;-68
2022/03/11 00:49:26;;;;;;;8.23;4.70;;;8.40;45.80;;;;;;5099046;28;20183;-72
2022/03/11 00:51:54;;;;;;;6.57;4.60;;;8.50;45.30;;;;;;5099458;28;20190;-69
2022/03/11 00:54:21;;;;;;;6.30;4.87;;;8.60;45.50;;;;;;5102085;28;20232;-71
2022/03/11 00:56:47;;;;;;;6.57;4.83;;;8.70;45.50;;;;;;5095803;28;20260;-70
2022/03/11 00:59:13;;;;;;;5.60;4.33;;;8.90;45.30;;;;;;5104720;27;20180;-68
2022/03/11 01:01:38;;;;;;;6.27;4.33;;;9.00;45.10;;;;;;5103776;28;20184;-67
2022/03/11 01:04:04;;;;;;;6.00;4.47;;;9.10;45.20;;;;;;5099171;27;20269;-71
2022/03/11 01:06:30;;;;;;;6.93;4.37;;;9.20;44.80;;;;;;5068414;28;20215;-71
2022/03/11 01:08:58;;;;;;;5.87;4.40;;;9.30;44.70;;;;;;5068428;28;20191;-70
2022/03/11 01:11:28;;;;;;;7.13;4.70;;;9.40;44.60;;;;;;5078234;28;20179;-72
2022/03/11 01:13:54;;;;;;;5.70;4.07;;;9.50;44.30;;;;;;5078591;28;20172;-67
2022/03/11 01:16:19;;;;;;;7.43;4.10;;;9.60;44.30;;;;;;5074279;28;20184;-68
2022/03/11 01:18:45;;;;;;;6.60;4.67;;;9.60;44.20;;;;;;5099406;28;20195;-71
2022/03/11 01:21:11;;;;;;;6.63;4.63;;;9.70;44.20;;;;;;5077387;28;20203;-70
2022/03/11 01:23:37;;;;;;;7.67;5.20;;;9.70;44.10;;;;;;5109954;27;20190;-70
2022/03/11 01:26:03;;;;;;;5.53;4.40;;;9.70;44.10;;;;;;5074640;28;20199;-68
2022/03/11 01:28:31;;;;;;;5.37;3.97;;;9.80;44.10;;;;;;5075878;28;20204;-71
2022/03/11 01:30:59;;;;;;;6.50;4.67;;;9.80;44.10;;;;;;5060996;28;20188;-70
2022/03/11 01:33:25;;;;;;;6.37;4.13;;;9.80;44.70;;;;;;5069890;28;20194;-71
2022/03/11 01:35:53;;;;;;;5.43;4.30;;;9.80;44.10;;;;;;5065373;28;20201;-70
2022/03/11 01:38:19;;;;;;;5.83;4.27;;;9.80;44.30;;;;;;5105911;28;20180;-70
2022/03/11 01:40:44;;;;;;;5.30;4.07;;;9.80;44.10;;;;;;5101992;28;20176;-70
2022/03/11 01:43:18;;;;;;;6.27;4.23;;;9.70;44.00;;;;;;5099600;28;20227;-71
2022/03/11 01:45:47;;;;;;;6.03;4.13;;;9.70;44.40;;;;;;5103200;28;20202;-67
2022/03/11 01:48:13;;;;;;;4.80;3.73;;;9.70;44.20;;;;;;5067350;28;20183;-72
2022/03/11 01:50:40;;;;;;;5.83;4.00;;;9.70;44.10;;;;;;5069304;28;20169;-67
2022/03/11 01:53:09;;;;;;;8.00;4.13;;;9.60;44.10;;;;;;5099843;28;20263;-69
2022/03/11 01:55:37;;;;;;;6.80;4.27;;;9.60;44.20;;;;;;5099098;28;20195;-71
2022/03/11 01:58:06;;;;;;;6.40;4.23;;;9.60;44.40;;;;;;5108764;27;20245;-71
2022/03/11 02:00:40;;;;;;;5.33;3.83;;;9.50;44.20;;;;;;5084012;28;20200;-70
2022/03/11 02:03:06;;;;;;;5.90;3.90;;;9.50;44.20;;;;;;5070209;28;20176;-71
2022/03/11 02:05:37;;;;;;;5.30;4.10;;;9.50;44.50;;;;;;5096194;28;20196;-71
2022/03/11 02:08:05;;;;;;;7.27;3.97;;;9.40;44.40;;;;;;5062806;28;20168;-72
2022/03/11 02:10:30;;;;;;;4.97;3.60;;;9.40;44.50;;;;;;5073984;28;20164;-73
2022/03/11 02:13:00;;;;;;;6.63;4.17;;;9.30;44.40;;;;;;5071755;28;20192;-71
2022/03/11 02:15:26;;;;;;;6.07;3.93;;;9.30;44.70;;;;;;5104246;27;20164;-69
2022/03/11 02:17:52;;;;;;;5.53;4.10;;;9.30;44.70;;;;;;5090095;28;20206;-70
2022/03/11 02:20:20;;;;;;;5.83;3.90;;;9.20;44.80;;;;;;5093888;28;20241;-69
2022/03/11 02:22:50;;;;;;;3.80;3.33;;;9.20;44.90;;;;;;5076782;28;20185;-71
2022/03/11 02:25:17;;;;;;;5.73;3.90;;;9.10;44.70;;;;;;5076046;28;20200;-68
2022/03/11 02:27:48;;;;;;;7.73;4.47;;;9.10;44.80;;;;;;5068551;28;20196;-71
2022/03/11 02:30:22;;;;;;;5.40;4.20;;;9.10;45.10;;;;;;5064548;28;20169;-71
2022/03/11 02:32:49;;;;;;;6.67;4.83;;;9.10;45.70;;;;;;5072810;28;20195;-71
2022/03/11 02:35:17;;;;;;;6.27;5.03;;;9.10;45.90;;;;;;5096058;28;20188;-72
2022/03/11 02:37:42;;;;;;;6.60;4.90;;;9.10;46.00;;;;;;5090618;28;20179;-71
2022/03/11 02:40:09;;;;;;;6.23;4.70;;;9.00;46.10;;;;;;5112546;28;20179;-71
2022/03/11 02:42:37;;;;;;;7.60;5.10;;;9.00;46.40;;;;;;5097078;28;20513;-71
2022/03/11 02:45:06;;;;;;;6.50;4.77;;;9.10;46.60;;;;;;5062272;28;20190;-71
2022/03/11 02:47:39;;;;;;;5.93;4.10;;;9.00;46.50;;;;;;5124409;28;20222;-72
2022/03/11 02:50:05;;;;;;;7.87;4.80;;;9.00;46.30;;;;;;5094831;28;20189;-71
2022/03/11 02:52:31;;;;;;;7.53;4.93;;;9.10;46.70;;;;;;5101521;28;20258;-70
2022/03/11 02:54:57;;;;;;;6.13;4.33;;;9.00;47.00;;;;;;5102561;28;20192;-70
2022/03/11 02:57:25;;;;;;;7.53;4.83;;;9.00;46.70;;;;;;5064226;28;20193;-67
2022/03/11 02:59:53;;;;;;;7.43;4.87;;;9.00;47.20;;;;;;5076443;28;20180;-70
2022/03/11 03:02:19;;;;;;;7.93;5.40;;;9.00;47.20;;;;;;5071157;28;20195;-71
2022/03/11 03:04:44;;;;;;;7.50;4.97;;;9.00;47.40;;;;;;5104879;28;20315;-71
2022/03/11 03:07:13;;;;;;;7.10;5.17;;;9.00;47.70;;;;;;5103200;28;20219;-70
2022/03/11 03:09:41;;;;;;;7.60;5.03;;;9.00;47.50;;;;;;5100309;28;20183;-67
2022/03/11 03:12:15;;;;;;;8.53;5.47;;;8.90;47.60;;;;;;5073685;28;20175;-72
2022/03/11 03:14:41;;;;;;;7.63;5.13;;;8.90;47.90;;;;;;5094449;28;20189;-70
2022/03/11 03:17:06;;;;;;;7.60;5.10;;;8.90;47.40;;;;;;5077291;28;20180;-71
2022/03/11 03:19:35;;;;;;;7.50;5.10;;;8.90;47.80;;;;;;5067459;28;20188;-71
2022/03/11 03:22:05;;;;;;;8.30;5.17;;;8.90;47.50;;;;;;5100203;28;20291;-68
2022/03/11 03:24:32;;;;;;;7.00;5.37;;;8.90;48.20;;;;;;5076582;28;20177;-71
2022/03/11 03:26:58;;;;;;;6.20;4.50;;;8.80;48.30;;;;;;5077882;28;20204;-71
2022/03/11 03:29:24;;;;;;;6.17;4.43;;;8.80;47.70;;;;;;5079775;28;20176;-71
2022/03/11 03:31:49;;;;;;;8.37;5.30;;;8.80;47.60;;;;;;5104597;28;20201;-71
2022/03/11 03:34:17;;;;;;;7.93;5.20;;;8.80;48.30;;;;;;5107686;27;20176;-71
2022/03/11 03:36:45;;;;;;;7.57;5.33;;;8.70;48.10;;;;;;5079703;28;20816;-71
2022/03/11 03:39:13;;;;;;;8.53;5.63;;;8.70;48.70;;;;;;5074709;28;20186;-72
2022/03/11 03:41:38;;;;;;;6.73;5.10;;;8.70;48.10;;;;;;5073653;28;20184;-71
2022/03/11 03:44:07;;;;;;;6.67;4.80;;;8.70;48.20;;;;;;5102597;28;20241;-71
2022/03/11 03:46:32;;;;;;;7.97;5.20;;;8.60;48.20;;;;;;5073823;28;20208;-71
2022/03/11 03:49:00;;;;;;;7.30;4.73;;;8.60;48.00;;;;;;5100283;28;20347;-71
2022/03/11 03:51:28;;;;;;;5.53;4.27;;;8.60;47.90;;;;;;5100953;27;20287;-71
2022/03/11 03:53:53;;;;;;;6.63;4.70;;;8.60;47.60;;;;;;5097278;28;20193;-68
2022/03/11 03:56:19;;;;;;;9.27;5.30;;;8.60;48.60;;;;;;5100224;27;20180;-71
2022/03/11 03:58:45;;;;;;;7.67;5.30;;;8.50;48.00;;;;;;5072633;28;20187;-71
2022/03/11 04:01:10;;;;;;;7.90;5.47;;;8.50;48.50;;;;;;5098633;28;20184;-71
2022/03/11 04:03:36;;;;;;;6.90;4.90;;;8.50;48.60;;;;;;5102599;27;20191;-72
2022/03/11 04:06:02;;;;;;;8.47;4.93;;;8.40;48.30;;;;;;5073179;28;20336;-72
2022/03/11 04:08:27;;;;;;;5.90;4.60;;;8.40;48.50;;;;;;5104405;28;20180;-73
2022/03/11 04:10:53;;;;;;;6.70;4.97;;;8.40;48.30;;;;;;5073888;28;20187;-72
2022/03/11 04:13:18;;;;;;;6.03;4.50;;;8.30;48.90;;;;;;5100282;27;20268;-72
2022/03/11 04:15:44;;;;;;;7.20;4.33;;;8.30;48.70;;;;;;5072875;28;20193;-72
2022/03/11 04:18:10;;;;;;;6.93;5.17;;;8.20;48.40;;;;;;5087990;28;20275;-74
2022/03/11 04:20:35;;;;;;;6.57;4.60;;;8.20;49.00;;;;;;5103719;27;20253;-71
2022/03/11 04:23:03;;;;;;;8.27;5.57;;;8.20;48.50;;;;;;5077770;28;20187;-73
2022/03/11 04:25:29;;;;;;;7.83;4.90;;;8.10;50.10;;;;;;5075198;28;20197;-72
2022/03/11 04:27:54;;;;;;;6.33;5.00;;;8.10;49.30;;;;;;5099040;28;20212;-72
2022/03/11 04:30:20;;;;;;;6.93;4.63;;;8.10;48.90;;;;;;5067980;28;20199;-72
2022/03/11 04:32:46;;;;;;;6.50;4.40;;;8.10;49.10;;;;;;5107407;28;20240;-73
2022/03/11 04:35:11;;;;;;;6.87;4.63;;;8.00;49.00;;;;;;5074633;28;20192;-73
2022/03/11 04:37:37;;;;;;;7.40;4.63;;;8.00;49.50;;;;;;5077031;28;20348;-72
2022/03/11 04:40:04;;;;;;;6.83;4.30;;;7.90;49.30;;;;;;5096180;28;20338;-70
2022/03/11 04:42:29;;;;;;;7.63;4.77;;;7.90;49.10;;;;;;5103281;27;20530;-71
2022/03/11 04:44:55;;;;;;;7.37;5.13;;;7.80;48.90;;;;;;5062859;28;20241;-73
2022/03/11 04:47:21;;;;;;;8.67;6.13;;;7.80;50.50;;;;;;5105160;27;20223;-73
2022/03/11 04:49:46;;;;;;;9.23;6.30;;;7.80;50.20;;;;;;5076800;28;20259;-70
2022/03/11 04:52:12;;;;;;;8.70;5.83;;;7.70;51.70;;;;;;5072000;28;20180;-71
2022/03/11 04:54:38;;;;;;;10.37;6.17;;;7.70;51.40;;;;;;5108587;28;20237;-72
2022/03/11 04:57:05;;;;;;;8.53;6.27;;;7.70;52.40;;;;;;5075476;28;20270;-73
2022/03/11 04:59:31;;;;;;;9.30;6.13;;;7.60;52.50;;;;;;5099301;28;20340;-72
2022/03/11 05:01:59;;;;;;;10.60;6.73;;;7.60;52.90;;;;;;5070039;28;20204;-73
2022/03/11 05:04:25;;;;;;;8.27;6.10;;;7.50;52.80;;;;;;5094377;27;20225;-71
2022/03/11 05:06:51;;;;;;;8.60;5.90;;;7.60;52.70;;;;;;5077594;28;20223;-73
2022/03/11 05:09:16;;;;;;;9.60;5.80;;;7.50;52.50;;;;;;5110394;28;20187;-72
2022/03/11 05:11:42;;;;;;;8.77;5.57;;;7.50;52.20;;;;;;5074931;28;20349;-72
2022/03/11 05:14:09;;;;;;;7.67;6.20;;;7.50;52.20;;;;;;5099508;27;20199;-72
2022/03/11 05:16:35;;;;;;;9.20;5.77;;;7.50;52.90;;;;;;5104485;28;20193;-73
2022/03/11 05:19:03;;;;;;;8.27;5.60;;;7.50;52.50;;;;;;5100115;28;20266;-73
2022/03/11 05:21:28;;;;;;;8.00;5.97;;;7.50;52.60;;;;;;5082924;28;20189;-73
2022/03/11 05:23:56;;;;;;;10.17;6.07;;;7.50;53.20;;;;;;5069950;28;20199;-72
2022/03/11 05:26:25;;;;;;;8.57;6.57;;;7.40;52.70;;;;;;5099399;27;20222;-70
2022/03/11 05:28:58;;;;;;;10.30;7.57;;;7.50;53.30;;;;;;5105519;28;20179;-71
2022/03/11 05:31:24;;;;;;;11.60;7.50;;;7.40;53.40;;;;;;5102511;27;20184;-73
2022/03/11 05:33:50;;;;;;;11.17;7.67;;;7.40;54.00;;;;;;5081437;28;20196;-73
2022/03/11 05:36:18;;;;;;;9.63;7.00;;;7.40;55.30;;;;;;5109377;27;20240;-72
2022/03/11 05:38:44;;;;;;;9.57;6.27;;;7.40;54.80;;;;;;5103065;28;20202;-73
2022/03/11 05:41:12;;;;;;;9.47;6.60;;;7.30;53.90;;;;;;5104575;27;20202;-70
2022/03/11 05:43:38;;;;;;;10.40;6.77;;;7.30;54.60;;;;;;5068974;28;20225;-71
2022/03/11 05:46:09;;;;;;;9.60;6.77;;;7.30;54.70;;;;;;5074638;28;20191;-72
2022/03/11 05:48:37;;;;;;;11.20;7.13;;;7.30;54.60;;;;;;5120527;27;20172;-69
2022/03/11 05:51:02;;;;;;;8.93;6.73;;;7.20;55.10;;;;;;5086183;28;20172;-72
2022/03/11 05:53:30;;;;;;;10.70;7.20;;;7.20;54.90;;;;;;5121169;27;20255;-73
2022/03/11 05:55:56;;;;;;;11.70;7.90;;;7.20;55.10;;;;;;5110713;28;20266;-73
2022/03/11 05:58:22;;;;;;;11.10;7.73;;;7.20;56.20;;;;;;5107259;27;20247;-73
2022/03/11 06:00:52;;;;;;;10.00;7.00;;;7.20;55.80;;;;;;5104064;28;20172;-73
2022/03/11 06:03:20;;;;;;;10.60;6.93;;;7.10;55.60;;;;;;5105740;27;20181;-71
2022/03/11 06:05:48;;;;;;;12.20;7.50;;;7.10;56.00;;;;;;5106873;27;20269;-69
2022/03/11 06:08:16;;;;;;;11.47;7.63;;;7.10;56.30;;;;;;5066253;28;20255;-72
2022/03/11 06:10:43;;;;;;;14.87;8.47;;;7.10;57.10;;;;;;5081423;28;20261;-71
2022/03/11 06:13:08;;;;;;;11.27;7.80;;;7.10;57.10;;;;;;5105338;27;20263;-71
2022/03/11 06:15:36;;;;;;;10.90;7.50;;;7.10;56.80;;;;;;5072440;28;20268;-72
2022/03/11 06:18:02;;;;;;;12.40;8.00;;;7.10;57.10;;;;;;5087359;28;20188;-73
2022/03/11 06:20:30;;;;;;;12.33;7.67;;;7.10;57.50;;;;;;5097058;28;20168;-70
2022/03/11 06:22:59;;;;;;;11.87;7.83;;;7.10;57.00;;;;;;5108858;27;20172;-71
2022/03/11 06:25:24;;;;;;;10.13;7.73;;;7.10;57.80;;;;;;5098127;28;20178;-72
2022/03/11 06:27:50;;;;;;;9.83;7.20;;;7.00;57.40;;;;;;5102451;27;20169;-73
2022/03/11 06:30:16;;;;;;;14.60;9.37;;;7.10;57.00;;;;;;5074295;28;20163;-70
2022/03/11 06:32:43;;;;;;;13.40;8.47;;;7.00;58.70;;;;;;5105116;28;20164;-73
2022/03/11 06:35:13;;;;;;;13.43;9.10;;;7.00;59.10;;;;;;5065441;28;20193;-72
2022/03/11 06:37:45;;;;;;;13.17;9.00;;;7.00;59.50;;;;;;5107599;28;20171;-72
2022/03/11 06:40:14;;;;;;;12.63;8.30;;;7.00;59.70;;;;;;5101262;28;20346;-71
2022/03/11 06:42:42;;;;;;;12.23;8.50;;;7.00;59.40;;;;;;5074508;28;20187;-73
2022/03/11 06:45:09;;;;;;;13.70;9.37;;;7.00;59.40;;;;;;5099096;28;20271;-73
2022/03/11 06:47:37;;;;;;;13.10;9.30;;;7.00;60.30;;;;;;5077222;28;20199;-73
2022/03/11 06:50:04;;;;;;;12.50;8.43;;;7.00;59.50;;;;;;5103589;28;20196;-71
2022/03/11 06:52:32;;;;;;;12.20;8.70;;;7.00;59.70;;;;;;5073484;28;20186;-71
2022/03/11 06:54:59;;;;;;;12.93;9.37;;;7.00;59.80;;;;;;5077819;28;20173;-73
2022/03/11 06:57:24;;;;;;;14.30;9.20;;;7.00;60.20;;;;;;5107462;28;20441;-72
2022/03/11 06:59:50;;;;;;;11.17;8.57;;;7.10;59.90;;;;;;5072409;28;20279;-70
2022/03/11 07:02:17;;;;;;;12.20;8.47;;;7.10;60.00;;;;;;5072110;28;20219;-72
2022/03/11 07:04:45;;;;;;;12.27;8.37;;;7.10;59.40;;;;;;5075457;28;20242;-73
2022/03/11 07:07:13;;;;;;;12.40;8.53;;;7.10;59.80;;;;;;5080231;28;20207;-72
2022/03/11 07:09:44;;;;;;;11.87;7.97;;;7.10;59.90;;;;;;5106490;27;20169;-72
2022/03/11 07:12:09;;;;;;;12.13;8.63;;;7.10;59.50;;;;;;5069623;28;20259;-70
2022/03/11 07:14:38;;;;;;;12.87;8.60;;;7.20;59.30;;;;;;5089252;28;20278;-72
2022/03/11 07:17:05;;;;;;;11.57;8.70;;;7.20;60.50;;;;;;5100048;28;20183;-73
2022/03/11 07:19:34;;;;;;;15.50;10.10;;;7.20;59.70;;;;;;5083485;28;20240;-75
2022/03/11 07:22:02;;;;;;;14.10;9.27;;;7.30;60.70;;;;;;5081648;28;20196;-75
2022/03/11 07:24:28;;;;;;;13.83;8.27;;;7.20;60.30;;;;;;5068441;28;20241;-72
2022/03/11 07:26:56;;;;;;;12.63;8.93;;;7.30;59.80;;;;;;5102674;28;20331;-74
2022/03/11 07:29:22;;;;;;;11.87;8.70;;;7.30;60.10;;;;;;5109567;28;20180;-74
2022/03/11 07:31:48;;;;;;;12.57;8.50;;;7.30;59.90;;;;;;5079826;28;20263;-73
2022/03/11 07:34:14;;;;;;;10.27;7.67;;;7.40;59.70;;;;;;5079376;28;20245;-74
2022/03/11 07:36:40;;;;;;;11.90;8.10;;;7.40;59.00;;;;;;5079428;28;20256;-67
2022/03/11 07:39:09;;;;;;;13.10;8.67;;;7.40;58.90;;;;;;5067245;28;20181;-74
2022/03/11 07:41:36;;;;;;;12.47;9.07;;;7.50;59.40;;;;;;5070831;28;20182;-74
2022/03/11 07:44:05;;;;;;;13.53;9.40;;;7.50;59.30;;;;;;5083139;28;20263;-74
2022/03/11 07:46:36;;;;;;;14.23;8.93;;;7.50;59.30;;;;;;5127990;27;20196;-72
2022/03/11 07:49:05;;;;;;;12.37;9.43;;;7.50;58.80;;;;;;5093198;28;20188;-72
2022/03/11 07:51:31;;;;;;;11.27;8.13;;;7.50;58.90;;;;;;5097012;28;20192;-75
2022/03/11 07:53:57;;;;;;;14.60;9.23;;;7.60;58.50;;;;;;5105737;27;20181;-72
2022/03/11 07:56:26;;;;;;;13.80;10.03;;;7.70;58.80;;;;;;5105324;28;20203;-76
2022/03/11 07:58:54;;;;;;;12.63;9.53;;;7.70;58.80;;;;;;5102533;28;20211;-72
2022/03/11 08:01:25;;;;;;;11.57;8.47;;;7.70;58.70;;;;;;5110912;27;20179;-72
2022/03/11 08:03:52;;;;;;;14.97;9.90;;;7.80;58.70;;;;;;5106760;27;20286;-72
2022/03/11 08:06:20;;;;;;;14.70;9.73;;;7.80;58.90;;;;;;5076345;28;20204;-70
2022/03/11 08:08:46;;;;;;;13.70;9.50;;;7.80;58.90;;;;;;5078522;28;20195;-72
2022/03/11 08:11:14;;;;;;;13.43;9.60;;;7.90;58.60;;;;;;5076521;28;20204;-69
2022/03/11 08:13:41;;;;;;;12.47;9.17;;;7.90;58.50;;;;;;5096625;28;20184;-72
2022/03/11 08:16:09;;;;;;;14.40;10.10;;;8.00;58.30;;;;;;5105937;28;20184;-75
2022/03/11 08:18:35;;;;;;;14.20;9.87;;;8.00;58.00;;;;;;5106539;27;20183;-73
2022/03/11 08:21:03;;;;;;;16.17;9.97;;;8.00;57.70;;;;;;5074648;28;20208;-74
2022/03/11 08:23:33;;;;;;;16.03;10.43;;;8.10;57.40;;;;;;5098493;27;20196;-70
2022/03/11 08:26:01;;;;;;;16.37;10.87;;;8.10;57.60;;;;;;5112055;27;20300;-73
2022/03/11 08:28:27;;;;;;;13.03;9.00;;;8.20;57.50;;;;;;5109540;27;20196;-68
2022/03/11 08:30:57;;;;;;;15.40;10.13;;;8.20;57.10;;;;;;5103301;28;20180;-72
2022/03/11 08:33:24;;;;;;;14.30;9.23;;;8.30;57.10;;;;;;5073370;28;20200;-71
2022/03/11 08:35:51;;;;;;;12.53;9.73;;;8.30;56.70;;;;;;5106650;28;20219;-71
2022/03/11 08:38:19;;;;;;;13.60;9.63;;;8.40;56.70;;;;;;5105278;27;20248;-75
2022/03/11 08:40:45;;;;;;;13.60;9.33;;;8.50;56.60;;;;;;5059940;28;20216;-73
2022/03/11 08:43:10;;;;;;;12.47;9.10;;;8.50;56.40;;;;;;5097422;27;20191;-65
2022/03/11 08:45:36;;;;;;;13.33;8.90;;;8.60;56.10;;;;;;5107376;28;20181;-73
2022/03/11 08:48:02;;;;;;;12.70;9.57;;;8.60;56.50;;;;;;5079458;28;20206;-72
2022/03/11 08:50:28;;;;;;;13.67;9.87;;;8.70;56.10;;;;;;5108491;27;20182;-69
2022/03/11 08:52:54;;;;;;;13.27;9.27;;;8.80;55.80;;;;;;5069297;28;20191;-76
2022/03/11 08:55:20;;;;;;;13.63;8.77;;;8.80;55.50;;;;;;5074325;28;20194;-72
2022/03/11 08:57:51;;;;;;;11.90;8.83;;;8.90;55.50;;;;;;5102133;28;20220;-74
2022/03/11 09:00:19;;;;;;;11.50;8.13;;;9.00;55.10;;;;;;5101845;28;20263;-67
2022/03/11 09:02:45;;;;;;;13.57;9.07;;;9.00;55.20;;;;;;5116008;27;20200;-72
2022/03/11 09:05:15;;;;;;;12.40;8.40;;;9.10;54.80;;;;;;5110057;28;20195;-74
2022/03/11 09:07:41;;;;;;;11.77;8.43;;;9.10;54.80;;;;;;5106499;28;20219;-73
2022/03/11 09:10:11;;;;;;;11.00;7.67;;;9.20;54.60;;;;;;5104882;28;20177;-70
2022/03/11 09:12:37;;;;;;;12.07;8.77;;;9.20;54.40;;;;;;5106630;28;20254;-74
2022/03/11 09:15:05;;;;;;;12.67;9.37;;;9.30;54.20;;;;;;5102685;27;20172;-75
2022/03/11 09:17:32;;;;;;;12.70;9.27;;;9.30;53.90;;;;;;5074969;28;20180;-73
2022/03/11 09:20:02;;;;;;;12.73;8.13;;;9.40;53.90;;;;;;5067739;28;20210;-74
2022/03/11 09:22:28;;;;;;;12.60;8.70;;;9.40;53.90;;;;;;5076747;28;20176;-74
2022/03/11 09:24:54;;;;;;;12.53;9.20;;;9.50;53.70;;;;;;5105894;28;20187;-72
2022/03/11 09:27:22;;;;;;;11.67;8.90;;;9.50;53.50;;;;;;5079912;28;20203;-76
2022/03/11 09:29:51;;;;;;;13.40;9.57;;;9.50;53.30;;;;;;5094560;28;20204;-75
2022/03/11 09:32:16;;;;;;;10.27;7.93;;;9.60;53.10;;;;;;5108551;28;20196;-75
2022/03/11 09:34:47;;;;;;;10.40;7.80;;;9.60;53.40;;;;;;5097166;28;20180;-73
2022/03/11 09:37:13;;;;;;;13.00;8.67;;;9.70;53.40;;;;;;5067401;28;20189;-75
2022/03/11 09:39:39;;;;;;;11.27;8.90;;;9.80;53.30;;;;;;5073258;28;20198;-73
2022/03/11 09:42:06;;;;;;;11.60;8.40;;;9.80;52.90;;;;;;5075437;28;20266;-75
2022/03/11 09:44:33;;;;;;;11.93;8.70;;;10.00;51.90;;;;;;5076884;28;20191;-74
2022/03/11 09:46:59;;;;;;;13.13;8.80;;;10.40;51.60;;;;;;5100589;28;20385;-75
2022/03/11 09:49:33;;;;;;;13.63;10.30;;;11.00;51.60;;;;;;5103124;27;20168;-74
2022/03/11 09:52:00;;;;;;;12.33;9.53;;;11.60;49.50;;;;;;5095535;28;20188;-75
2022/03/11 09:54:26;;;;;;;16.07;9.83;;;12.20;49.80;;;;;;5108145;28;20210;-76
2022/03/11 09:56:53;;;;;;;10.43;8.37;;;12.70;48.90;;;;;;5098949;28;20200;-75
2022/03/11 09:59:19;;;;;;;11.00;8.38;;;13.10;48.60;;;;;;5109041;27;20202;-73
2022/03/11 10:01:44;;;;;;;11.95;8.63;;;13.60;48.90;;;;;;5069708;28;20258;-76
2022/03/11 10:04:13;;;;;;;11.18;8.82;;;13.90;47.30;;;;;;5107978;28;20199;-73
2022/03/11 10:06:45;;;;;;;13.85;9.15;;;14.30;47.60;;;;;;5099138;28;20276;-76
2022/03/11 10:09:19;;;;;;;12.30;9.23;;;14.60;46.30;;;;;;5091031;28;20245;-76
2022/03/11 10:11:58;;;;;;;11.68;9.23;;;14.90;45.00;;;;;;5085261;28;20292;-75
2022/03/11 10:14:35;;;;;;;11.55;8.35;;;15.00;44.60;;;;;;5079741;28;20186;-76
2022/03/11 10:17:17;;;;;;;12.07;9.82;;;15.10;44.80;;;;;;5098545;28;20401;-74
2022/03/11 10:20:05;;;;;;;12.02;8.95;;;15.20;43.30;;;;;;5097271;28;20175;-74
2022/03/11 10:22:32;;;;;;;9.70;7.82;;;15.40;44.20;;;;;;5072966;28;20196;-74
2022/03/11 10:25:20;;;;;;;10.98;8.80;;;15.60;45.30;;;;;;5073476;28;20228;-73
2022/03/11 10:27:58;;;;;;;11.77;9.32;;;15.80;44.40;;;;;;5095860;28;20227;-74
2022/03/11 10:30:25;;;;;;;12.18;9.07;;;15.90;43.50;;;;;;5107809;28;20168;-75
2022/03/11 10:32:58;;;;;;;11.27;9.00;;;15.90;43.70;;;;;;5084476;28;20251;-76
2022/03/11 10:35:31;;;;;;;11.50;8.60;;;15.90;43.10;;;;;;5103254;28;20224;-74
2022/03/11 10:37:59;;;;;;;11.85;8.68;;;15.90;43.30;;;;;;5115970;27;20183;-78
2022/03/11 10:40:28;;;;;;;12.23;9.30;;;15.80;43.00;;;;;;5070620;28;20180;-74
2022/03/11 10:43:14;;;;;;;15.30;8.50;;;15.80;42.90;;;;;;5057757;28;20172;-73
2022/03/11 10:45:53;;;;;;;12.73;9.98;;;15.80;42.10;;;;;;5067032;28;20164;-75
2022/03/11 10:48:41;;;;;;;10.88;9.07;;;15.80;41.30;;;;;;5101062;28;20234;-73
2022/03/11 10:51:11;;;;;;;11.07;8.48;;;15.80;41.90;;;;;;5092059;28;20259;-74
2022/03/11 10:53:40;;;;;;;11.85;10.48;;;15.70;41.70;;;;;;5105391;28;20259;-75
2022/03/11 10:56:09;;;;;;;11.38;8.77;;;15.60;41.60;;;;;;5095581;28;20195;-73
2022/03/11 10:58:36;;;;;;;10.18;7.88;;;15.60;42.30;;;;;;5081596;28;20180;-76
2022/03/11 11:01:02;;;;;;;9.93;7.97;;;15.60;42.90;;;;;;5088406;28;20180;-77
2022/03/11 11:03:31;;;;;;;11.15;9.23;;;15.70;43.40;;;;;;5099103;28;20215;-75
2022/03/11 11:05:59;;;;;;;10.93;8.80;;;15.70;42.20;;;;;;5065144;28;20210;-72
2022/03/11 11:08:26;;;;;;;12.32;8.98;;;15.80;42.60;;;;;;5097673;28;20173;-73
2022/03/11 11:10:54;;;;;;;10.38;7.88;;;15.80;42.20;;;;;;5070379;28;20178;-74
2022/03/11 11:13:20;;;;;;;11.00;8.88;;;15.80;42.60;;;;;;5069870;28;20365;-74
2022/03/11 11:15:48;;;;;;;11.27;8.57;;;15.80;42.60;;;;;;5073218;28;20168;-74
2022/03/11 11:18:14;;;;;;;12.07;8.57;;;15.90;42.50;;;;;;5080320;28;20228;-73
2022/03/11 11:20:47;;;;;;;10.05;8.25;;;16.00;42.30;;;;;;5100709;28;20195;-72
2022/03/11 11:23:16;;;;;;;10.40;8.25;;;16.00;42.50;;;;;;5108903;28;20165;-74
2022/03/11 11:25:46;;;;;;;12.00;8.55;;;16.00;42.70;;;;;;5108815;28;20195;-75
2022/03/11 11:28:21;;;;;;;10.52;8.35;;;16.10;42.60;;;;;;5110793;28;20175;-73
2022/03/11 11:30:52;;;;;;;17.38;8.65;;;16.10;42.60;;;;;;5068690;28;20250;-72
2022/03/11 11:33:18;;;;;;;9.27;7.97;;;16.10;42.80;;;;;;5069574;28;20175;-75
2022/03/11 11:35:45;;;;;;;11.43;8.88;;;16.20;42.70;;;;;;5098083;28;20253;-75
2022/03/11 11:38:33;;;;;;;22.92;10.05;;;16.20;42.00;;;;;;5107682;28;20196;-72
2022/03/11 11:41:00;;;;;;;10.43;8.63;;;16.20;40.20;;;;;;5070128;28;20188;-74
2022/03/11 11:43:31;;;;;;;10.93;8.52;;;16.20;41.80;;;;;;5116594;28;20196;-73
2022/03/11 11:46:04;;;;;;;10.88;9.10;;;16.20;42.40;;;;;;5064534;28;20196;-74
2022/03/11 11:50:59;;;;;;;11.27;8.43;;;16.20;42.00;;;;;;5088370;28;20280;-74
2022/03/11 11:53:41;;;;;;;11.70;9.20;;;16.20;41.60;;;;;;5085747;28;20266;-74
2022/03/11 11:56:29;;;;;;;11.77;10.15;;;16.20;40.90;;;;;;5077398;28;20180;-74
2022/03/11 11:59:02;;;;;;;11.80;8.88;;;16.20;40.30;;;;;;5065025;28;20212;-75
2022/03/11 12:01:41;;;;;;;11.68;9.45;;;16.20;40.90;;;;;;5084197;28;20176;-75
2022/03/11 12:04:29;;;;;;;10.98;8.88;;;16.20;40.30;;;;;;5076374;28;20317;-71
2022/03/11 12:07:02;;;;;;;10.85;8.40;;;16.20;40.90;;;;;;5100931;28;20188;-74
2022/03/11 12:09:42;;;;;;;13.60;9.07;;;16.20;41.40;;;;;;5074602;28;20169;-77
2022/03/11 12:12:18;;;;;;;11.20;8.07;;;16.30;40.50;;;;;;5092072;28;20192;-80
2022/03/11 12:15:00;;;;;;;10.05;7.68;;;16.30;41.30;;;;;;5078641;28;20188;-76
2022/03/11 12:17:39;;;;;;;10.95;8.27;;;16.40;41.70;;;;;;5103153;28;20286;-72
2022/03/11 12:20:26;;;;;;;11.98;8.00;;;16.50;41.30;;;;;;5065486;28;20176;-76
2022/03/11 12:22:55;;;;;;;10.38;7.90;;;16.60;41.30;;;;;;5092711;28;20431;-74
2022/03/11 12:25:22;;;;;;;10.23;7.88;;;16.70;41.90;;;;;;5099113;28;20184;-73
2022/03/11 12:28:23;;;;;;;13.07;9.10;;;16.80;42.40;;;;;;5109138;28;20440;-76
2022/03/11 12:30:49;;;;;;;9.98;8.45;;;17.00;41.20;;;;;;5077436;28;20207;-75
2022/03/11 12:33:23;;;;;;;11.63;7.97;;;17.10;42.40;;;;;;5095770;28;20245;-77
2022/03/11 12:35:54;;;;;;;11.25;7.50;;;17.20;41.70;;;;;;5106695;28;20189;-77
2022/03/11 12:38:27;;;;;;;13.20;9.43;;;17.40;42.00;;;;;;5077020;28;20361;-77
2022/03/11 12:40:55;;;;;;;14.20;9.10;;;17.40;40.70;;;;;;5078936;28;20198;-75
2022/03/11 12:43:21;;;;;;;12.52;8.77;;;17.40;40.90;;;;;;5073840;28;20187;-76
2022/03/11 12:45:50;;;;;;;12.43;10.07;;;17.50;40.90;;;;;;5112294;28;20183;-76
2022/03/11 12:48:19;;;;;;;12.23;9.48;;;17.50;40.60;;;;;;5078322;28;20251;-74
2022/03/11 12:50:46;;;;;;;11.18;9.00;;;17.50;39.80;;;;;;5080389;28;20195;-76
2022/03/11 12:53:13;;;;;;;12.68;9.80;;;17.50;40.00;;;;;;5115847;27;20214;-76
2022/03/11 12:55:41;;;;;;;13.20;8.55;;;17.50;39.70;;;;;;5112349;27;20231;-69